Time;durP1;ratioP1;P1;durP2;ratioP2;P2;SDS_P1;SDS_P2;PMS_P1;PMS_P2;Temp;Humidity;BMP_temperature;BMP_pressure;BME280_temperature;BME280_humidity;BME280_pressure;Samples;Min_cycle;Max_cycle;Signal;HPM_P1;HPM_P2
2020/12/20 00:02:09;;;;;;;88.53;60.28;;;9.60;88.20;;;;;;5034709;28;20386;-65
2020/12/20 00:04:35;;;;;;;89.47;58.70;;;9.60;88.20;;;;;;5035021;28;20013;-65
2020/12/20 00:07:01;;;;;;;86.27;58.77;;;9.50;88.10;;;;;;5034624;28;20436;-65
2020/12/20 00:09:26;;;;;;;89.57;60.63;;;9.60;88.20;;;;;;5034774;28;20021;-66
2020/12/20 00:11:53;;;;;;;90.10;60.65;;;9.60;88.20;;;;;;5034453;28;20398;-66
2020/12/20 00:14:34;;;;;;;89.57;61.63;;;9.60;88.10;;;;;;5034991;28;20029;-66
2020/12/20 00:17:08;;;;;;;91.70;60.13;;;9.60;88.00;;;;;;5034148;28;20032;-65
2020/12/20 00:19:34;;;;;;;94.53;61.30;;;9.60;88.00;;;;;;5034323;28;20043;-66
2020/12/20 00:22:03;;;;;;;91.97;61.23;;;9.60;88.00;;;;;;5033998;28;20022;-66
2020/12/20 00:24:29;;;;;;;87.03;59.87;;;9.60;88.10;;;;;;5034339;28;20104;-65
2020/12/20 00:26:57;;;;;;;88.23;60.57;;;9.60;88.10;;;;;;5034277;28;20026;-66
2020/12/20 00:29:23;;;;;;;92.75;59.90;;;9.60;88.00;;;;;;5034303;28;20382;-65
2020/12/20 00:31:49;;;;;;;98.67;63.57;;;9.60;88.00;;;;;;5034324;28;20030;-65
2020/12/20 00:34:15;;;;;;;93.10;61.13;;;9.70;88.00;;;;;;5034077;28;20028;-65
2020/12/20 00:36:45;;;;;;;92.13;61.67;;;9.60;87.90;;;;;;5034004;28;20042;-66
2020/12/20 00:39:11;;;;;;;88.53;59.87;;;9.60;87.90;;;;;;5032748;28;20423;-65
2020/12/20 00:41:37;;;;;;;89.20;61.30;;;9.70;88.00;;;;;;5033499;28;20113;-66
2020/12/20 00:44:03;;;;;;;98.85;59.50;;;9.70;88.00;;;;;;5033913;28;20386;-66
2020/12/20 00:46:28;;;;;;;95.57;62.58;;;9.70;87.80;;;;;;5034061;28;20030;-66
2020/12/20 00:48:54;;;;;;;92.07;61.60;;;9.70;87.80;;;;;;5033996;28;20079;-65
2020/12/20 00:51:20;;;;;;;96.33;62.83;;;9.60;87.80;;;;;;5033859;28;20057;-66
2020/12/20 00:53:45;;;;;;;98.80;62.83;;;9.70;88.00;;;;;;5033965;28;20022;-66
2020/12/20 00:56:14;;;;;;;95.10;61.43;;;9.60;87.90;;;;;;5033714;28;20029;-66
2020/12/20 00:58:42;;;;;;;90.10;61.07;;;9.70;87.90;;;;;;5033840;28;20402;-66
2020/12/20 01:01:09;;;;;;;93.00;61.67;;;9.60;87.90;;;;;;5033596;28;20104;-65
2020/12/20 01:03:36;;;;;;;94.67;63.27;;;9.70;88.00;;;;;;5033484;28;20474;-65
2020/12/20 01:06:03;;;;;;;89.72;59.92;;;9.60;87.90;;;;;;5033411;28;20112;-65
2020/12/20 01:08:29;;;;;;;88.93;61.40;;;9.70;88.00;;;;;;5033467;28;20029;-65
2020/12/20 01:10:55;;;;;;;90.63;60.37;;;9.60;88.00;;;;;;5033615;28;20025;-65
2020/12/20 01:13:20;;;;;;;90.70;59.17;;;9.70;88.00;;;;;;5033594;28;20083;-65
2020/12/20 01:15:47;;;;;;;87.23;60.13;;;9.60;88.00;;;;;;5033625;28;20394;-65
2020/12/20 01:18:12;;;;;;;93.20;61.27;;;9.60;88.00;;;;;;5033464;28;20048;-65
2020/12/20 01:20:39;;;;;;;95.72;62.63;;;9.60;88.00;;;;;;5033432;28;20025;-66
2020/12/20 01:23:05;;;;;;;101.00;66.68;;;9.70;88.10;;;;;;5033471;28;20033;-65
2020/12/20 01:25:31;;;;;;;96.22;63.70;;;9.70;88.10;;;;;;5033217;28;20501;-65
2020/12/20 01:27:57;;;;;;;93.27;62.63;;;9.60;88.00;;;;;;5033288;28;20061;-65
2020/12/20 01:30:22;;;;;;;97.23;64.70;;;9.70;88.10;;;;;;5033328;28;20026;-65
2020/12/20 01:32:48;;;;;;;97.70;65.30;;;9.70;88.10;;;;;;5033277;28;20393;-65
2020/12/20 01:35:14;;;;;;;99.70;66.50;;;9.70;88.10;;;;;;5033112;28;20119;-65
2020/12/20 01:37:39;;;;;;;91.20;64.55;;;9.70;88.10;;;;;;5033238;28;20444;-65
2020/12/20 01:40:06;;;;;;;104.47;65.05;;;9.70;88.00;;;;;;5033115;28;20382;-65
2020/12/20 01:42:32;;;;;;;100.97;66.67;;;9.70;88.10;;;;;;5032861;28;20478;-65
2020/12/20 01:44:58;;;;;;;97.83;63.97;;;9.70;88.30;;;;;;5033185;28;20096;-65
2020/12/20 01:47:30;;;;;;;103.07;67.93;;;9.70;88.30;;;;;;5033006;28;20104;-66
2020/12/20 01:49:56;;;;;;;102.13;66.67;;;9.70;88.30;;;;;;5033093;28;20045;-65
2020/12/20 01:52:22;;;;;;;104.67;66.43;;;9.70;88.20;;;;;;5032883;28;20478;-66
2020/12/20 01:54:53;;;;;;;106.80;67.30;;;9.60;88.10;;;;;;5032093;28;20383;-65
2020/12/20 01:57:19;;;;;;;107.63;67.88;;;9.60;88.20;;;;;;5032794;28;20505;-65
2020/12/20 01:59:46;;;;;;;111.70;70.47;;;9.70;88.50;;;;;;5029921;28;20029;-66
2020/12/20 02:02:12;;;;;;;106.78;67.80;;;9.60;88.50;;;;;;5030517;28;20025;-66
2020/12/20 02:04:39;;;;;;;115.07;71.00;;;9.60;88.50;;;;;;5031305;28;20032;-65
2020/12/20 02:07:05;;;;;;;114.97;71.00;;;9.70;88.60;;;;;;5032477;28;20025;-65
2020/12/20 02:09:31;;;;;;;113.90;70.90;;;9.60;88.50;;;;;;5032747;28;20029;-65
2020/12/20 02:12:07;;;;;;;114.97;73.00;;;9.70;88.50;;;;;;5032671;28;20489;-65
2020/12/20 02:14:33;;;;;;;119.70;70.70;;;9.70;88.50;;;;;;5032246;28;20040;-66
2020/12/20 02:16:59;;;;;;;108.07;68.27;;;9.60;88.50;;;;;;5032288;28;20045;-66
2020/12/20 02:19:25;;;;;;;107.03;67.37;;;9.60;88.60;;;;;;5032790;28;20426;-65
2020/12/20 02:21:51;;;;;;;114.43;69.17;;;9.70;88.50;;;;;;5032233;28;20522;-65
2020/12/20 02:24:18;;;;;;;113.43;70.37;;;9.60;88.30;;;;;;5032888;28;20104;-65
2020/12/20 02:26:44;;;;;;;111.77;69.80;;;9.70;88.40;;;;;;5032735;28;20478;-65
2020/12/20 02:29:10;;;;;;;105.37;65.97;;;9.70;88.40;;;;;;5032215;28;20044;-65
2020/12/20 02:31:36;;;;;;;114.43;69.30;;;9.70;88.50;;;;;;5032493;28;20022;-65
2020/12/20 02:34:02;;;;;;;107.67;66.37;;;9.60;88.40;;;;;;5032477;28;20551;-66
2020/12/20 02:36:29;;;;;;;110.55;67.78;;;9.60;88.50;;;;;;5032091;28;20083;-65
2020/12/20 02:38:55;;;;;;;94.07;63.95;;;9.70;88.70;;;;;;5032814;28;20025;-65
2020/12/20 02:41:21;;;;;;;93.70;63.92;;;9.60;88.50;;;;;;5032455;28;20132;-66
2020/12/20 02:43:47;;;;;;;91.80;61.93;;;9.60;88.50;;;;;;5032299;28;20022;-65
2020/12/20 02:46:12;;;;;;;94.33;63.00;;;9.60;88.30;;;;;;5032331;28;20386;-65
2020/12/20 02:48:38;;;;;;;91.30;59.05;;;9.60;88.40;;;;;;5032483;28;20036;-65
2020/12/20 02:51:04;;;;;;;95.07;65.28;;;9.60;87.90;;;;;;5032696;28;20033;-65
2020/12/20 02:53:31;;;;;;;94.88;61.70;;;9.60;87.80;;;;;;5032644;28;20074;-65
2020/12/20 02:55:56;;;;;;;95.07;63.28;;;9.60;87.40;;;;;;5032232;28;20045;-65
2020/12/20 02:58:22;;;;;;;85.63;59.53;;;9.60;87.40;;;;;;5032198;28;20021;-65
2020/12/20 03:00:48;;;;;;;90.73;62.27;;;9.60;87.40;;;;;;5032448;28;20032;-65
2020/12/20 03:03:13;;;;;;;94.37;62.27;;;9.60;87.30;;;;;;5032185;28;20044;-65
2020/12/20 03:05:39;;;;;;;96.80;63.37;;;9.50;87.60;;;;;;5034506;28;20033;-65
2020/12/20 03:08:05;;;;;;;90.13;59.80;;;9.50;88.00;;;;;;5036106;28;20057;-65
2020/12/20 03:10:31;;;;;;;91.03;61.87;;;9.40;87.90;;;;;;5036038;28;20032;-66
2020/12/20 03:12:57;;;;;;;100.20;64.63;;;9.40;88.00;;;;;;5035872;28;20033;-65
2020/12/20 03:15:23;;;;;;;90.67;62.67;;;9.40;88.20;;;;;;5035527;28;20116;-65
2020/12/20 03:17:49;;;;;;;94.00;63.37;;;9.30;88.30;;;;;;5035647;28;20383;-65
2020/12/20 03:20:14;;;;;;;92.60;63.80;;;9.30;88.30;;;;;;5035918;28;20033;-65
2020/12/20 03:22:40;;;;;;;97.63;65.03;;;9.30;88.70;;;;;;5035370;28;20029;-65
2020/12/20 03:25:06;;;;;;;97.87;65.60;;;9.30;89.00;;;;;;5035466;28;20060;-65
2020/12/20 03:27:32;;;;;;;97.00;64.20;;;9.30;89.10;;;;;;5034130;28;20030;-66
2020/12/20 03:29:57;;;;;;;104.77;67.07;;;9.30;89.10;;;;;;5035502;28;20029;-65
2020/12/20 03:32:23;;;;;;;94.60;63.77;;;9.30;89.00;;;;;;5035491;28;20021;-66
2020/12/20 03:34:49;;;;;;;95.63;63.10;;;9.30;88.90;;;;;;5035298;28;20032;-66
2020/12/20 03:37:15;;;;;;;100.57;65.67;;;9.40;88.90;;;;;;5035183;28;20116;-65
2020/12/20 03:39:41;;;;;;;99.53;63.00;;;9.40;88.80;;;;;;5035093;28;20609;-66
2020/12/20 03:42:06;;;;;;;91.30;63.27;;;9.40;88.60;;;;;;5035433;28;20048;-66
2020/12/20 03:44:32;;;;;;;98.50;65.77;;;9.30;88.70;;;;;;5035280;28;20025;-65
2020/12/20 03:46:59;;;;;;;96.30;65.13;;;9.30;88.90;;;;;;5035004;28;20116;-65
2020/12/20 03:49:24;;;;;;;95.18;63.75;;;9.30;89.10;;;;;;5035389;28;20484;-65
2020/12/20 03:51:50;;;;;;;98.97;66.97;;;9.30;89.20;;;;;;5035012;28;20068;-65
2020/12/20 03:54:16;;;;;;;96.47;64.70;;;9.30;89.10;;;;;;5034925;28;20031;-65
2020/12/20 03:56:41;;;;;;;95.40;65.53;;;9.30;89.10;;;;;;5035249;28;20048;-65
2020/12/20 03:59:07;;;;;;;103.40;68.20;;;9.30;89.10;;;;;;5035212;28;20034;-66
2020/12/20 04:01:33;;;;;;;97.63;64.83;;;9.40;89.00;;;;;;5034900;28;20033;-66
2020/12/20 04:03:58;;;;;;;100.17;64.33;;;9.30;89.10;;;;;;5034915;28;20048;-65
2020/12/20 04:06:24;;;;;;;100.33;67.03;;;9.40;89.20;;;;;;5034748;28;20117;-65
2020/12/20 04:08:49;;;;;;;97.83;67.07;;;9.40;89.20;;;;;;5034834;28;20067;-65
2020/12/20 04:11:15;;;;;;;101.03;68.00;;;9.30;89.00;;;;;;5034980;28;20455;-66
2020/12/20 04:13:41;;;;;;;104.40;67.03;;;9.40;89.10;;;;;;5034708;28;20025;-65
2020/12/20 04:16:08;;;;;;;94.37;65.50;;;9.40;89.00;;;;;;5033621;28;20038;-65
2020/12/20 04:18:35;;;;;;;100.23;67.67;;;9.40;88.90;;;;;;5033937;28;20077;-65
2020/12/20 04:21:01;;;;;;;100.47;66.03;;;9.40;89.00;;;;;;5034684;28;20105;-66
2020/12/20 04:23:27;;;;;;;96.77;63.13;;;9.40;89.00;;;;;;5034694;28;20475;-66
2020/12/20 04:25:53;;;;;;;97.30;64.87;;;9.40;89.00;;;;;;5034360;28;20026;-65
2020/12/20 04:28:18;;;;;;;105.67;67.70;;;9.40;89.00;;;;;;5034043;28;20509;-65
2020/12/20 04:30:44;;;;;;;103.30;69.07;;;9.40;88.90;;;;;;5034025;28;20386;-65
2020/12/20 04:33:10;;;;;;;100.40;65.20;;;9.40;88.90;;;;;;5034495;28;20087;-66
2020/12/20 04:35:36;;;;;;;106.03;66.40;;;9.40;88.90;;;;;;5034184;28;20044;-65
2020/12/20 04:38:02;;;;;;;96.47;65.43;;;9.50;88.80;;;;;;5034256;28;20030;-66
2020/12/20 04:40:28;;;;;;;107.27;66.97;;;9.50;88.70;;;;;;5034039;28;20030;-65
2020/12/20 04:43:11;;;;;;;98.57;65.60;;;9.50;88.50;;;;;;5034267;28;20100;-65
2020/12/20 04:45:38;;;;;;;;;;;9.50;88.50;;;;;;5034492;28;20026;-65
2020/12/20 04:48:04;;;;;;;102.43;64.50;;;9.50;88.50;;;;;;5034186;28;19905;-65
2020/12/20 04:50:31;;;;;;;105.03;68.23;;;9.40;88.50;;;;;;5034129;28;20434;-65
2020/12/20 04:52:59;;;;;;;99.03;64.70;;;9.40;88.70;;;;;;5033546;28;20382;-66
2020/12/20 04:55:26;;;;;;;106.77;68.57;;;9.40;88.90;;;;;;5033531;28;20021;-66
2020/12/20 04:57:54;;;;;;;98.40;65.37;;;9.40;88.90;;;;;;5033738;28;20108;-66
2020/12/20 05:00:20;;;;;;;97.40;63.97;;;9.40;88.80;;;;;;5033721;28;20035;-65
2020/12/20 05:02:46;;;;;;;96.47;64.33;;;9.40;88.90;;;;;;5033806;28;20025;-66
2020/12/20 05:05:12;;;;;;;104.68;67.13;;;9.50;88.80;;;;;;5033738;28;20032;-65
2020/12/20 05:07:38;;;;;;;102.03;66.60;;;9.50;88.70;;;;;;5033696;28;20100;-66
2020/12/20 05:10:08;;;;;;;93.90;64.93;;;9.50;88.70;;;;;;5033670;28;20104;-65
2020/12/20 05:12:35;;;;;;;94.77;65.57;;;9.50;88.60;;;;;;5033344;28;20501;-66
2020/12/20 05:15:18;;;;;;;92.50;63.23;;;9.50;88.40;;;;;;5033450;28;20024;-65
2020/12/20 05:17:44;;;;;;;96.40;64.40;;;9.50;88.30;;;;;;5033069;28;20049;-65
2020/12/20 05:20:14;;;;;;;91.47;61.60;;;9.50;88.00;;;;;;5033453;28;20153;-65
2020/12/20 05:22:40;;;;;;;95.00;63.13;;;9.40;88.10;;;;;;5033400;28;20049;-66
2020/12/20 05:25:16;;;;;;;92.80;63.90;;;9.40;88.10;;;;;;5033481;28;20033;-66
2020/12/20 05:27:42;;;;;;;96.20;61.50;;;9.40;88.30;;;;;;5033312;28;20485;-65
2020/12/20 05:30:16;;;;;;;94.70;64.67;;;9.40;88.40;;;;;;5033433;28;20017;-66
2020/12/20 05:32:44;;;;;;;99.73;64.77;;;9.40;88.50;;;;;;5032759;28;20432;-65
2020/12/20 05:35:15;;;;;;;99.57;64.27;;;9.40;88.60;;;;;;5032570;28;20036;-65
2020/12/20 05:37:42;;;;;;;93.23;62.93;;;9.40;88.70;;;;;;5032919;28;20101;-66
2020/12/20 05:40:22;;;;;;;96.90;64.03;;;9.40;88.70;;;;;;5032730;28;20527;-65
2020/12/20 05:42:56;;;;;;;92.63;63.03;;;9.30;88.50;;;;;;5032695;28;20029;-66
2020/12/20 05:45:24;;;;;;;96.57;63.17;;;9.30;88.60;;;;;;5033062;28;20028;-66
2020/12/20 05:47:50;;;;;;;88.60;61.20;;;9.30;88.80;;;;;;5033406;28;20022;-65
2020/12/20 05:50:16;;;;;;;98.83;64.47;;;9.30;88.80;;;;;;5033121;28;20069;-65
2020/12/20 05:52:42;;;;;;;98.20;65.20;;;9.30;89.00;;;;;;5033043;28;20033;-66
2020/12/20 05:55:11;;;;;;;96.10;64.77;;;9.30;89.10;;;;;;5032790;28;20367;-65
2020/12/20 05:57:38;;;;;;;91.77;62.27;;;9.30;89.10;;;;;;5033197;28;20029;-66
2020/12/20 06:00:05;;;;;;;93.80;64.00;;;9.30;88.90;;;;;;5032881;28;20462;-65
2020/12/20 06:02:31;;;;;;;94.87;63.73;;;9.30;88.90;;;;;;5033097;28;20029;-66
2020/12/20 06:04:59;;;;;;;94.60;64.47;;;9.30;88.90;;;;;;5032960;28;20041;-66
2020/12/20 06:07:26;;;;;;;94.77;62.97;;;9.30;88.90;;;;;;5032661;28;20152;-65
2020/12/20 06:09:55;;;;;;;98.07;64.93;;;9.30;89.00;;;;;;5032710;28;20025;-65
2020/12/20 06:12:24;;;;;;;96.33;64.23;;;9.30;88.70;;;;;;5032968;28;20449;-66
2020/12/20 06:14:50;;;;;;;93.60;63.20;;;9.40;88.60;;;;;;5032904;28;20115;-66
2020/12/20 06:17:22;;;;;;;93.27;63.93;;;9.40;88.60;;;;;;5032698;28;20045;-65
2020/12/20 06:19:58;;;;;;;95.70;63.40;;;9.30;88.40;;;;;;5032868;28;20508;-65
2020/12/20 06:22:29;;;;;;;96.87;63.97;;;9.30;88.50;;;;;;5032562;28;20112;-65
2020/12/20 06:25:00;;;;;;;103.00;66.47;;;9.30;88.60;;;;;;5032910;28;20022;-65
2020/12/20 06:27:28;;;;;;;96.20;65.43;;;9.30;88.80;;;;;;5032765;28;20021;-66
2020/12/20 06:29:56;;;;;;;101.77;68.17;;;9.20;88.90;;;;;;5032648;28;20486;-66
2020/12/20 06:32:29;;;;;;;105.17;69.83;;;9.20;88.90;;;;;;5032748;28;20229;-65
2020/12/20 06:34:58;;;;;;;107.00;72.53;;;9.20;89.10;;;;;;5032560;28;20053;-66
2020/12/20 06:37:24;;;;;;;112.60;73.23;;;9.20;89.20;;;;;;5033447;28;20055;-65
2020/12/20 06:39:50;;;;;;;108.00;74.17;;;9.20;89.20;;;;;;5033555;28;20062;-66
2020/12/20 06:42:34;;;;;;;108.57;72.10;;;9.20;89.20;;;;;;5036121;28;20482;-65
2020/12/20 06:45:20;;;;;;;116.43;73.77;;;9.20;89.20;;;;;;5036235;28;20017;-65
2020/12/20 06:47:50;;;;;;;107.20;70.70;;;9.20;89.30;;;;;;5036139;28;20022;-66
2020/12/20 06:50:38;;;;;;;108.57;71.63;;;9.20;89.60;;;;;;5035968;28;20014;-65
2020/12/20 06:53:08;;;;;;;110.43;72.43;;;9.20;89.30;;;;;;5030679;28;20041;-65
2020/12/20 06:55:34;;;;;;;101.30;68.70;;;9.20;89.50;;;;;;5035787;28;20087;-65
2020/12/20 06:58:03;;;;;;;106.63;68.80;;;9.20;89.70;;;;;;5035340;28;20025;-66
2020/12/20 07:00:38;;;;;;;104.27;69.50;;;9.20;89.70;;;;;;5035998;28;20029;-65
2020/12/20 07:03:04;;;;;;;104.63;69.57;;;9.20;89.60;;;;;;5035764;28;20104;-65
2020/12/20 07:05:35;;;;;;;99.40;65.93;;;9.30;89.60;;;;;;5035932;28;20108;-65
2020/12/20 07:08:08;;;;;;;102.47;67.73;;;9.30;89.60;;;;;;5036201;28;20036;-65
2020/12/20 07:10:52;;;;;;;100.07;69.10;;;9.30;89.50;;;;;;5036108;28;20017;-65
2020/12/20 07:13:38;;;;;;;103.13;67.60;;;9.30;89.40;;;;;;5035880;28;20064;-65
2020/12/20 07:16:04;;;;;;;97.80;65.40;;;9.30;89.30;;;;;;5035588;28;20117;-66
2020/12/20 07:18:53;;;;;;;106.53;67.73;;;9.30;89.20;;;;;;5035527;28;20136;-65
2020/12/20 07:21:18;;;;;;;98.47;65.67;;;9.40;89.20;;;;;;5035831;28;20037;-65
2020/12/20 07:23:47;;;;;;;99.90;66.67;;;9.40;89.20;;;;;;5035757;28;20025;-65
2020/12/20 07:26:13;;;;;;;101.70;68.87;;;9.40;89.10;;;;;;5035439;28;20021;-66
2020/12/20 07:28:38;;;;;;;98.23;66.37;;;9.40;89.00;;;;;;5035565;28;20029;-65
2020/12/20 07:31:13;;;;;;;103.33;69.20;;;9.40;89.00;;;;;;5035458;28;20470;-65
2020/12/20 07:33:38;;;;;;;103.73;68.00;;;9.40;89.00;;;;;;5035465;28;20382;-65
2020/12/20 07:36:05;;;;;;;100.33;67.63;;;9.40;88.90;;;;;;5035077;28;20033;-65
2020/12/20 07:38:30;;;;;;;101.60;66.38;;;9.40;88.80;;;;;;5034347;28;20037;-66
2020/12/20 07:40:56;;;;;;;102.27;66.17;;;9.50;88.70;;;;;;5032375;28;20032;-66
2020/12/20 07:43:22;;;;;;;100.40;65.90;;;9.50;88.60;;;;;;5032483;28;20033;-66
2020/12/20 07:46:02;;;;;;;96.68;65.07;;;9.50;88.40;;;;;;5033566;28;20815;-66
2020/12/20 07:48:28;;;;;;;95.17;65.03;;;9.50;88.20;;;;;;5038112;28;20108;-66
2020/12/20 07:51:09;;;;;;;101.10;65.57;;;9.50;88.20;;;;;;5033461;28;20057;-65
2020/12/20 07:53:56;;;;;;;103.20;67.30;;;9.50;88.30;;;;;;5035085;28;20101;-66
2020/12/20 07:56:32;;;;;;;98.77;63.43;;;9.50;88.40;;;;;;5034986;28;20453;-65
2020/12/20 07:59:07;;;;;;;100.80;65.00;;;9.50;88.50;;;;;;5034865;28;20589;-65
2020/12/20 08:01:34;;;;;;;95.47;62.47;;;9.50;88.50;;;;;;5034740;28;20017;-65
2020/12/20 08:04:11;;;;;;;95.13;64.93;;;9.50;88.50;;;;;;5035019;28;20022;-65
2020/12/20 08:06:44;;;;;;;91.20;63.60;;;9.50;88.30;;;;;;5034817;28;20097;-65
2020/12/20 08:09:21;;;;;;;95.37;64.97;;;9.50;88.30;;;;;;5034693;28;20121;-67
2020/12/20 08:11:48;;;;;;;97.27;65.40;;;9.50;88.30;;;;;;5034448;28;20060;-65
2020/12/20 08:14:16;;;;;;;94.77;65.13;;;9.50;88.20;;;;;;5034332;28;20386;-65
2020/12/20 08:16:44;;;;;;;99.20;64.87;;;9.50;88.10;;;;;;5034381;28;20548;-65
2020/12/20 08:19:16;;;;;;;91.68;62.55;;;9.60;88.10;;;;;;5034459;28;20414;-65
2020/12/20 08:21:46;;;;;;;92.68;62.38;;;9.60;88.10;;;;;;5034343;28;20087;-65
2020/12/20 08:24:12;;;;;;;92.90;62.73;;;9.60;88.10;;;;;;5034423;28;20024;-65
2020/12/20 08:26:39;;;;;;;93.40;64.13;;;9.70;88.00;;;;;;5034462;28;20121;-65
2020/12/20 08:29:05;;;;;;;91.00;61.63;;;9.70;87.90;;;;;;5034334;28;20104;-65
2020/12/20 08:31:33;;;;;;;100.35;64.35;;;9.70;87.90;;;;;;5034337;28;20378;-65
2020/12/20 08:33:59;;;;;;;99.80;63.33;;;9.70;87.80;;;;;;5034126;28;20159;-65
2020/12/20 08:36:25;;;;;;;94.00;64.85;;;9.70;87.60;;;;;;5034171;28;20057;-65
2020/12/20 08:38:52;;;;;;;95.70;64.73;;;9.70;87.50;;;;;;5034265;28;20036;-65
2020/12/20 08:41:22;;;;;;;90.63;61.97;;;9.80;87.50;;;;;;5034079;28;20108;-66
2020/12/20 08:43:48;;;;;;;93.97;61.73;;;9.80;87.40;;;;;;5034077;28;20389;-66
2020/12/20 08:46:41;;;;;;;90.03;62.40;;;9.80;87.40;;;;;;5033864;28;20026;-66
2020/12/20 08:49:22;;;;;;;;;;;9.90;87.20;;;;;;5032704;28;20516;-65
2020/12/20 08:51:49;;;;;;;88.07;59.17;;;9.90;86.90;;;;;;5033822;28;19940;-65
2020/12/20 08:54:25;;;;;;;89.93;60.47;;;9.90;86.60;;;;;;5033943;28;20513;-66
2020/12/20 08:57:18;;;;;;;90.35;62.05;;;9.90;86.40;;;;;;5033651;28;20044;-65
2020/12/20 08:59:45;;;;;;;86.18;59.30;;;9.90;86.20;;;;;;5031209;28;20433;-66
2020/12/20 09:02:19;;;;;;;84.70;59.13;;;9.90;86.10;;;;;;5033415;28;20550;-66
2020/12/20 09:04:56;;;;;;;88.30;59.50;;;10.00;86.10;;;;;;5034157;28;20016;-66
2020/12/20 09:07:40;;;;;;;84.05;58.25;;;10.00;86.00;;;;;;5033801;28;20041;-65
2020/12/20 09:10:13;;;;;;;89.60;57.87;;;10.00;85.90;;;;;;5033959;28;20025;-65
2020/12/20 09:12:53;;;;;;;83.20;56.23;;;10.00;85.90;;;;;;5033740;28;20039;-66
2020/12/20 09:15:23;;;;;;;86.28;57.22;;;10.00;85.70;;;;;;5033583;28;20036;-65
2020/12/20 09:17:51;;;;;;;79.82;57.13;;;10.00;85.60;;;;;;5033384;28;20038;-66
2020/12/20 09:20:21;;;;;;;84.05;58.53;;;10.00;85.50;;;;;;5033399;28;20091;-66
2020/12/20 09:22:54;;;;;;;86.53;57.23;;;10.00;85.60;;;;;;5033503;28;20053;-67
2020/12/20 09:25:36;;;;;;;87.57;58.30;;;10.00;85.50;;;;;;5033200;28;20021;-66
2020/12/20 09:28:10;;;;;;;80.03;53.58;;;10.00;85.50;;;;;;5032435;28;20025;-66
2020/12/20 09:30:39;;;;;;;82.28;57.17;;;10.00;85.50;;;;;;5030848;28;20029;-66
2020/12/20 09:33:38;;;;;;;78.20;52.45;;;10.00;85.40;;;;;;5030974;28;20053;-66
2020/12/20 09:36:04;;;;;;;72.85;51.30;;;10.10;85.30;;;;;;5024224;28;20085;-64
2020/12/20 09:38:43;;;;;;;76.07;53.22;;;10.10;85.20;;;;;;5030361;28;20033;-65
2020/12/20 09:41:29;;;;;;;78.70;54.75;;;10.10;85.20;;;;;;5030387;28;20109;-64
2020/12/20 09:43:55;;;;;;;82.28;54.53;;;10.10;85.20;;;;;;5032589;28;20025;-78
2020/12/20 09:46:25;;;;;;;75.80;54.10;;;10.10;85.10;;;;;;5033028;28;20021;-64
2020/12/20 09:48:52;;;;;;;83.40;56.50;;;10.10;85.10;;;;;;5032724;28;20021;-64
2020/12/20 09:51:19;;;;;;;87.68;60.72;;;10.10;85.20;;;;;;5032796;28;20104;-64
2020/12/20 09:53:45;;;;;;;89.40;63.83;;;10.10;85.20;;;;;;5030912;28;20017;-64
2020/12/20 09:56:12;;;;;;;76.03;54.13;;;10.10;85.20;;;;;;5030041;28;20033;-64
2020/12/20 09:58:39;;;;;;;74.25;53.50;;;10.10;85.20;;;;;;5030621;28;20033;-64
2020/12/20 10:01:04;;;;;;;82.97;60.03;;;10.10;85.10;;;;;;5032879;28;20536;-63
2020/12/20 10:03:31;;;;;;;84.30;60.47;;;10.10;85.10;;;;;;5032649;28;20025;-64
2020/12/20 10:05:58;;;;;;;83.25;59.70;;;10.20;85.10;;;;;;5032827;28;20470;-63
2020/12/20 10:08:24;;;;;;;84.97;58.58;;;10.20;85.20;;;;;;5032923;28;20445;-63
2020/12/20 10:10:54;;;;;;;87.23;58.17;;;10.20;85.10;;;;;;5032606;28;20467;-64
2020/12/20 10:13:20;;;;;;;86.60;59.20;;;10.20;85.20;;;;;;5032538;28;20031;-64
2020/12/20 10:15:46;;;;;;;83.45;59.65;;;10.20;85.20;;;;;;5035074;28;20041;-64
2020/12/20 10:18:12;;;;;;;84.53;60.67;;;10.20;85.20;;;;;;5036581;28;20429;-64
2020/12/20 10:20:38;;;;;;;86.45;59.67;;;10.20;85.30;;;;;;5036954;28;20097;-64
2020/12/20 10:23:04;;;;;;;85.45;57.95;;;10.20;85.30;;;;;;5036730;28;20107;-68
2020/12/20 10:25:30;;;;;;;84.45;58.33;;;10.20;85.20;;;;;;5036454;28;20107;-69
2020/12/20 10:27:57;;;;;;;85.22;58.30;;;10.20;85.20;;;;;;5036629;28;20029;-69
2020/12/20 10:30:23;;;;;;;82.03;59.40;;;10.30;85.20;;;;;;5036716;28;20021;-69
2020/12/20 10:32:49;;;;;;;82.07;59.20;;;10.30;85.30;;;;;;5036438;28;20025;-69
2020/12/20 10:35:16;;;;;;;79.85;58.40;;;10.20;85.30;;;;;;5055769;22;20018;-67
2020/12/20 10:37:42;;;;;;;80.78;57.17;;;10.30;85.30;;;;;;5054078;28;20072;-71
2020/12/20 10:40:08;;;;;;;83.05;57.20;;;10.30;85.20;;;;;;5056335;28;20021;-67
2020/12/20 10:42:34;;;;;;;89.45;59.72;;;10.30;85.20;;;;;;5056000;28;20024;-67
2020/12/20 10:44:59;;;;;;;80.35;59.05;;;10.40;85.40;;;;;;5054905;28;20025;-68
2020/12/20 10:47:25;;;;;;;83.40;59.08;;;10.40;85.20;;;;;;5036182;28;20067;-69
2020/12/20 10:49:51;;;;;;;88.30;63.88;;;10.40;85.10;;;;;;5036224;28;20109;-68
2020/12/20 10:52:17;;;;;;;86.78;61.53;;;10.40;85.70;;;;;;5036099;28;20025;-70
2020/12/20 10:54:44;;;;;;;85.93;62.25;;;10.40;85.00;;;;;;5036045;28;20026;-68
2020/12/20 10:57:10;;;;;;;86.30;61.20;;;10.40;84.90;;;;;;5035964;28;20067;-66
2020/12/20 10:59:36;;;;;;;82.90;59.17;;;10.40;84.90;;;;;;5035887;28;20056;-67
2020/12/20 11:02:02;;;;;;;96.75;60.00;;;10.50;84.90;;;;;;5035976;28;20529;-68
2020/12/20 11:04:28;;;;;;;82.55;59.50;;;10.50;84.70;;;;;;5036038;28;20030;-67
2020/12/20 11:06:55;;;;;;;80.95;58.63;;;10.50;85.00;;;;;;5035452;28;20155;-67
2020/12/20 11:09:21;;;;;;;76.93;54.78;;;10.50;84.80;;;;;;5032462;28;20028;-67
2020/12/20 11:11:46;;;;;;;77.28;55.17;;;10.50;84.70;;;;;;5034272;28;20037;-65
2020/12/20 11:14:12;;;;;;;77.78;53.17;;;10.50;84.60;;;;;;5034695;28;20022;-67
2020/12/20 11:16:38;;;;;;;71.75;51.75;;;10.50;84.60;;;;;;5034913;28;20175;-65
2020/12/20 11:19:03;;;;;;;74.45;54.85;;;10.50;85.10;;;;;;5034766;28;20018;-67
2020/12/20 11:21:29;;;;;;;84.05;59.80;;;10.50;84.40;;;;;;5034747;28;20029;-67
2020/12/20 11:23:55;;;;;;;71.82;50.05;;;10.50;84.40;;;;;;5034630;28;20036;-66
2020/12/20 11:26:23;;;;;;;72.53;51.08;;;10.50;84.40;;;;;;5034323;28;20358;-64
2020/12/20 11:28:52;;;;;;;72.47;48.67;;;10.50;84.40;;;;;;5034383;28;20375;-67
2020/12/20 11:31:25;;;;;;;67.40;46.60;;;10.50;84.30;;;;;;5034731;28;20104;-66
2020/12/20 11:33:51;;;;;;;67.32;41.45;;;10.60;84.30;;;;;;5023539;28;20037;-67
2020/12/20 11:36:20;;;;;;;62.00;40.72;;;10.60;84.40;;;;;;5034539;28;20041;-66
2020/12/20 11:38:46;;;;;;;57.03;39.33;;;10.60;84.30;;;;;;5035268;28;20532;-66
2020/12/20 11:41:12;;;;;;;56.80;39.90;;;10.60;84.20;;;;;;5035126;28;20029;-67
2020/12/20 11:43:38;;;;;;;63.10;41.30;;;10.60;84.00;;;;;;5035165;28;20087;-67
2020/12/20 11:46:04;;;;;;;62.50;43.22;;;10.60;83.80;;;;;;5035262;28;20121;-67
2020/12/20 11:48:30;;;;;;;59.83;40.08;;;10.60;83.80;;;;;;5035072;28;20105;-67
2020/12/20 11:50:57;;;;;;;60.22;42.88;;;10.60;83.80;;;;;;5034957;28;20453;-66
2020/12/20 11:53:26;;;;;;;61.85;41.60;;;10.70;83.80;;;;;;5035403;28;20029;-66
2020/12/20 11:55:52;;;;;;;64.57;44.70;;;10.60;83.60;;;;;;5035077;28;20017;-65
2020/12/20 11:58:18;;;;;;;66.35;45.08;;;10.60;83.70;;;;;;5033718;28;20528;-65
2020/12/20 12:00:46;;;;;;;62.65;45.85;;;10.60;83.80;;;;;;5031995;28;20040;-65
2020/12/20 12:03:13;;;;;;;65.63;45.03;;;10.70;83.80;;;;;;5030970;28;20127;-67
2020/12/20 12:05:40;;;;;;;64.22;45.05;;;10.70;83.80;;;;;;5034882;28;20065;-67
2020/12/20 12:08:06;;;;;;;61.97;43.78;;;10.70;83.90;;;;;;5034983;28;20053;-67
2020/12/20 12:10:33;;;;;;;61.65;43.33;;;10.70;83.80;;;;;;5031948;28;20434;-67
2020/12/20 12:13:00;;;;;;;65.82;46.10;;;10.70;83.80;;;;;;5032034;28;20033;-67
2020/12/20 12:15:26;;;;;;;71.85;50.92;;;10.70;83.80;;;;;;5032464;28;20055;-67
2020/12/20 12:17:51;;;;;;;71.38;50.08;;;10.70;83.80;;;;;;5034331;28;20029;-68
2020/12/20 12:20:17;;;;;;;66.03;48.92;;;10.80;83.90;;;;;;5034244;28;20383;-66
2020/12/20 12:22:43;;;;;;;67.15;49.13;;;10.80;83.90;;;;;;5033394;28;20108;-67
2020/12/20 12:25:08;;;;;;;63.72;47.05;;;10.80;83.90;;;;;;5032084;28;20513;-68
2020/12/20 12:27:35;;;;;;;74.63;52.97;;;10.80;83.90;;;;;;5034047;28;20032;-68
2020/12/20 12:30:00;;;;;;;72.90;51.75;;;10.90;83.90;;;;;;5034400;28;20424;-68
2020/12/20 12:32:26;;;;;;;75.72;52.10;;;10.90;83.90;;;;;;5033826;28;20017;-68
2020/12/20 12:34:52;;;;;;;64.00;47.92;;;10.90;83.70;;;;;;5034194;28;20021;-68
2020/12/20 12:37:17;;;;;;;67.00;47.08;;;10.90;83.60;;;;;;5033196;28;20472;-67
2020/12/20 12:39:43;;;;;;;64.47;48.00;;;10.90;83.50;;;;;;5033179;28;20026;-68